createdAt,value
2022-11-22T00:00:43.984Z,12.00
2022-11-22T00:03:11.212Z,13.05
2022-11-22T00:05:38.495Z,13.00
2022-11-22T00:08:06.370Z,14.13
2022-11-22T00:10:33.907Z,14.07
2022-11-22T00:13:01.333Z,12.75
2022-11-22T00:15:30.003Z,12.75
2022-11-22T00:17:57.290Z,12.82
2022-11-22T00:20:24.534Z,13.25
2022-11-22T00:22:51.722Z,13.65
2022-11-22T00:25:18.995Z,13.55
2022-11-22T00:27:46.178Z,12.55
2022-11-22T00:30:13.576Z,14.23
2022-11-22T00:32:40.769Z,13.52
2022-11-22T00:35:08.353Z,13.38
2022-11-22T00:37:35.482Z,13.23
2022-11-22T00:40:02.873Z,13.52
2022-11-22T00:42:30.138Z,14.32
2022-11-22T00:44:57.364Z,14.38
2022-11-22T00:47:24.767Z,14.63
2022-11-22T00:49:51.885Z,14.90
2022-11-22T00:52:19.147Z,14.82
2022-11-22T00:54:51.468Z,14.93
2022-11-22T00:57:21.675Z,14.52
2022-11-22T00:59:48.809Z,15.60
2022-11-22T01:02:16.022Z,14.75
2022-11-22T01:04:43.147Z,14.55
2022-11-22T01:07:12.455Z,14.30
2022-11-22T01:09:39.601Z,15.32
2022-11-22T01:12:07.095Z,15.00
2022-11-22T01:14:34.619Z,15.18
2022-11-22T01:17:01.742Z,16.15
2022-11-22T01:19:29.199Z,16.10
2022-11-22T01:21:56.712Z,15.98
2022-11-22T01:24:24.021Z,14.68
2022-11-22T01:26:51.321Z,15.88
2022-11-22T01:29:18.556Z,15.35
2022-11-22T01:31:45.831Z,15.20
2022-11-22T01:34:13.471Z,15.02
2022-11-22T01:36:40.983Z,15.63
2022-11-22T01:39:08.207Z,16.52
2022-11-22T01:41:35.874Z,16.35
2022-11-22T01:44:23.016Z,16.63
2022-11-22T01:46:55.136Z,16.85
2022-11-22T01:49:43.068Z,17.92
2022-11-22T01:52:16.264Z,17.25
2022-11-22T01:54:48.168Z,17.10
2022-11-22T01:57:18.983Z,17.42
2022-11-22T01:59:51.547Z,16.98
2022-11-22T02:02:19.022Z,18.02
2022-11-22T02:04:46.680Z,17.10
2022-11-22T02:07:24.435Z,18.63
2022-11-22T02:09:53.519Z,18.77
2022-11-22T02:12:26.607Z,18.30
2022-11-22T02:14:54.352Z,20.05
2022-11-22T02:17:21.594Z,18.48
2022-11-22T02:19:50.889Z,18.75
2022-11-22T02:22:41.317Z,17.90
2022-11-22T02:25:20.522Z,19.00
2022-11-22T02:27:48.821Z,16.70
2022-11-22T02:30:16.546Z,16.75
2022-11-22T02:32:43.974Z,16.55
2022-11-22T02:35:30.736Z,16.48
2022-11-22T02:38:05.700Z,16.80
2022-11-22T02:40:59.236Z,16.30
2022-11-22T02:43:40.113Z,16.20
2022-11-22T02:46:10.033Z,16.05
2022-11-22T02:48:46.047Z,16.50
2022-11-22T02:51:17.209Z,16.05
2022-11-22T02:53:45.037Z,16.35
2022-11-22T02:56:13.031Z,16.65
2022-11-22T02:58:40.270Z,15.63
2022-11-22T03:01:07.889Z,15.70
2022-11-22T03:03:35.242Z,15.77
2022-11-22T03:06:02.832Z,16.77
2022-11-22T03:08:30.391Z,18.75
2022-11-22T03:11:01.381Z,16.65
2022-11-22T03:13:28.877Z,16.83
2022-11-22T03:15:56.397Z,17.55
2022-11-22T03:18:23.508Z,17.75
2022-11-22T03:20:51.070Z,17.70
2022-11-22T03:23:18.292Z,18.80
2022-11-22T03:25:45.468Z,18.60
2022-11-22T03:28:13.019Z,19.00
2022-11-22T03:30:41.582Z,18.70
2022-11-22T03:33:08.882Z,18.45
2022-11-22T03:35:36.059Z,19.75
2022-11-22T03:38:03.973Z,19.05
2022-11-22T03:40:31.687Z,18.85
2022-11-22T03:43:02.677Z,19.02
2022-11-22T03:45:30.043Z,19.17
2022-11-22T03:47:58.814Z,20.52
2022-11-22T03:50:26.570Z,22.75
2022-11-22T03:52:54.147Z,22.38
2022-11-22T03:55:21.354Z,21.05
2022-11-22T03:57:48.877Z,26.45
2022-11-22T04:00:16.343Z,64.90
2022-11-22T04:02:43.571Z,33.60
2022-11-22T04:05:10.861Z,24.30
2022-11-22T04:07:38.527Z,28.63
2022-11-22T04:10:06.741Z,21.75
2022-11-22T04:12:34.126Z,20.20
2022-11-22T04:15:07.414Z,21.58
2022-11-22T04:17:44.786Z,19.63
2022-11-22T04:20:35.040Z,19.80
2022-11-22T04:23:08.315Z,18.95
2022-11-22T04:25:37.367Z,29.85
2022-11-22T04:28:06.221Z,20.80
2022-11-22T04:30:52.130Z,19.83
2022-11-22T04:33:19.842Z,19.65
2022-11-22T04:35:47.798Z,18.02
2022-11-22T04:38:16.312Z,19.65
2022-11-22T04:40:44.641Z,18.92
2022-11-22T04:43:43.080Z,18.13
2022-11-22T04:46:10.921Z,18.17
2022-11-22T04:48:38.686Z,18.60
2022-11-22T04:51:25.147Z,18.63
2022-11-22T04:53:52.911Z,18.50
2022-11-22T04:56:20.281Z,18.55
2022-11-22T04:58:47.901Z,20.50
2022-11-22T05:01:15.649Z,19.63
2022-11-22T05:03:42.961Z,19.52
2022-11-22T05:06:13.008Z,21.02
2022-11-22T05:08:40.215Z,20.75
2022-11-22T05:11:07.477Z,20.83
2022-11-22T05:13:34.948Z,22.73
2022-11-22T05:16:05.005Z,21.58
2022-11-22T05:18:32.457Z,21.33
2022-11-22T05:21:04.237Z,21.98
2022-11-22T05:23:50.714Z,21.73
2022-11-22T05:26:18.157Z,22.40
2022-11-22T05:28:45.700Z,22.08
2022-11-22T05:31:19.088Z,22.75
2022-11-22T05:33:46.711Z,28.42
2022-11-22T05:36:13.985Z,28.65
2022-11-22T05:38:41.246Z,33.30
2022-11-22T05:41:11.975Z,28.33
2022-11-22T05:43:39.730Z,31.42
2022-11-22T05:46:24.861Z,24.90
2022-11-22T05:48:53.952Z,27.08
2022-11-22T05:51:25.254Z,22.00
2022-11-22T05:53:55.173Z,27.27
2022-11-22T05:56:24.160Z,30.15
2022-11-22T05:58:52.243Z,25.27
2022-11-22T06:01:22.051Z,22.60
2022-11-22T06:03:49.748Z,21.00
2022-11-22T06:06:17.680Z,24.90
2022-11-22T06:08:48.113Z,21.92
2022-11-22T06:11:23.547Z,21.17
2022-11-22T06:13:56.509Z,20.80
2022-11-22T06:16:24.417Z,21.00
2022-11-22T06:18:51.661Z,18.55
2022-11-22T06:21:25.304Z,22.95
2022-11-22T06:23:54.234Z,21.40
2022-11-22T06:26:22.577Z,19.75
2022-11-22T06:28:50.992Z,52.00
2022-11-22T06:31:23.562Z,27.08
2022-11-22T06:33:51.156Z,22.35
2022-11-22T06:36:24.081Z,23.55
2022-11-22T06:38:51.938Z,22.48
2022-11-22T06:41:25.344Z,23.08
2022-11-22T06:43:53.866Z,20.58
2022-11-22T06:46:23.208Z,18.90
2022-11-22T06:48:50.763Z,18.15
2022-11-22T06:51:26.532Z,18.73
2022-11-22T06:53:58.066Z,19.30
2022-11-22T06:56:31.048Z,20.67
2022-11-22T06:58:58.240Z,20.50
2022-11-22T07:01:27.724Z,20.63
2022-11-22T07:03:58.690Z,18.95
2022-11-22T07:06:32.424Z,19.02
2022-11-22T07:09:01.445Z,19.98
2022-11-22T07:11:30.774Z,20.45
2022-11-22T07:14:06.572Z,16.83
2022-11-22T07:16:36.425Z,17.73
2022-11-22T07:19:04.699Z,20.77
2022-11-22T07:21:32.733Z,20.35
2022-11-22T07:24:00.030Z,20.27
2022-11-22T07:26:28.840Z,20.85
2022-11-22T07:28:56.515Z,18.75
2022-11-22T07:31:24.060Z,16.67
2022-11-22T07:33:51.222Z,13.48
2022-11-22T07:36:20.551Z,15.98
2022-11-22T07:38:48.834Z,17.60
2022-11-22T07:41:17.798Z,17.50
2022-11-22T07:43:46.273Z,16.50
2022-11-22T07:46:31.943Z,17.67
2022-11-22T07:49:00.635Z,16.77
2022-11-22T07:51:28.392Z,17.25
2022-11-22T07:53:56.912Z,20.35
2022-11-22T07:56:24.654Z,19.90
2022-11-22T07:58:52.145Z,18.42
2022-11-22T08:01:21.178Z,18.90
2022-11-22T08:03:49.113Z,16.00
2022-11-22T08:06:16.813Z,24.67
2022-11-22T08:08:44.362Z,15.25
2022-11-22T08:11:12.130Z,15.55
2022-11-22T08:13:40.490Z,15.20
2022-11-22T08:16:18.096Z,16.27
2022-11-22T08:18:49.857Z,15.98
2022-11-22T08:21:18.659Z,15.93
2022-11-22T08:23:46.925Z,14.55
2022-11-22T08:26:16.235Z,15.57
2022-11-22T08:28:44.265Z,15.45
2022-11-22T08:31:19.954Z,17.48
2022-11-22T08:33:48.535Z,16.63
2022-11-22T08:36:15.924Z,15.00
2022-11-22T08:38:43.230Z,15.02
2022-11-22T08:41:11.166Z,19.75
2022-11-22T08:43:38.851Z,16.38
2022-11-22T08:46:06.696Z,18.80
2022-11-22T08:48:36.219Z,14.15
2022-11-22T08:51:07.388Z,21.25
2022-11-22T08:53:37.138Z,15.65
2022-11-22T08:56:06.965Z,17.95
2022-11-22T08:58:34.375Z,24.25
2022-11-22T09:01:09.314Z,33.53
2022-11-22T09:03:38.104Z,17.13
2022-11-22T09:09:22.099Z,12.50
2022-11-22T09:11:45.377Z,11.55
2022-11-22T09:14:12.930Z,12.38
2022-11-22T09:16:40.070Z,11.35
2022-11-22T09:19:07.637Z,25.42
2022-11-22T09:21:35.288Z,12.85
2022-11-22T09:24:02.567Z,12.38
2022-11-22T09:26:30.252Z,11.40
2022-11-22T09:28:57.786Z,11.15
2022-11-22T09:31:25.194Z,15.02
2022-11-22T09:33:52.747Z,14.43
2022-11-22T09:36:28.563Z,14.23
2022-11-22T09:38:57.225Z,14.70
2022-11-22T09:42:02.721Z,13.77
2022-11-22T09:45:01.611Z,13.77
2022-11-22T09:47:48.147Z,13.18
2022-11-22T09:50:44.495Z,13.05
2022-11-22T09:53:18.792Z,12.40
2022-11-22T09:55:53.137Z,11.70
2022-11-22T09:58:37.136Z,10.98
2022-11-22T10:01:18.755Z,11.27
2022-11-22T10:04:11.633Z,12.60
2022-11-22T10:06:43.706Z,11.80
2022-11-22T10:09:28.231Z,12.50
2022-11-22T10:12:03.509Z,13.05
2022-11-22T10:15:05.062Z,12.23
2022-11-22T10:17:50.872Z,12.27
2022-11-22T10:20:33.045Z,11.50
2022-11-22T10:23:00.596Z,10.88
2022-11-22T10:25:40.782Z,12.60
2022-11-22T10:28:28.574Z,11.13
2022-11-22T10:31:08.272Z,12.00
2022-11-22T10:33:44.623Z,12.02
2022-11-22T10:36:12.498Z,9.60
2022-11-22T10:39:00.963Z,10.80
2022-11-22T10:41:34.192Z,9.70
2022-11-22T10:44:30.652Z,10.47
2022-11-22T10:47:09.868Z,10.07
2022-11-22T10:49:46.245Z,11.45
2022-11-22T10:52:38.857Z,10.65
2022-11-22T10:55:43.848Z,13.40
2022-11-22T10:58:18.317Z,13.68
2022-11-22T11:00:50.714Z,14.63
2022-11-22T11:03:25.324Z,10.40
2022-11-22T11:10:02.824Z,10.88
2022-11-22T11:12:02.184Z,15.20
2022-11-22T11:14:59.662Z,14.77
2022-11-22T11:17:37.610Z,11.75
2022-11-22T11:20:13.540Z,13.55
2022-11-22T11:25:32.930Z,16.23
2022-11-22T11:28:31.119Z,13.25
2022-11-22T11:31:08.537Z,12.45
2022-11-22T11:33:38.776Z,14.07
2022-11-22T11:36:15.267Z,15.02
2022-11-22T11:38:42.482Z,14.45
2022-11-22T11:41:29.814Z,10.07
2022-11-22T11:44:03.054Z,13.25
2022-11-22T11:46:42.387Z,10.10
2022-11-22T11:49:14.107Z,11.65
2022-11-22T11:52:04.005Z,9.10
2022-11-22T11:54:41.288Z,8.38
2022-11-22T11:57:18.629Z,7.88
2022-11-22T11:59:48.426Z,7.90
2022-11-22T12:02:24.816Z,8.98
2022-11-22T12:05:05.261Z,7.88
2022-11-22T12:07:35.463Z,8.35
2022-11-22T12:10:24.098Z,7.95
2022-11-22T12:13:02.910Z,9.18
2022-11-22T12:15:57.487Z,7.75
2022-11-22T12:18:49.353Z,9.80
2022-11-22T12:21:46.501Z,9.32
2022-11-22T12:27:24.030Z,11.73
2022-11-22T12:29:52.873Z,11.65
2022-11-22T12:32:29.055Z,10.43
2022-11-22T12:35:18.836Z,10.30
2022-11-22T12:37:56.356Z,10.40
2022-11-22T12:40:33.028Z,10.73
2022-11-22T12:43:05.933Z,8.35
2022-11-22T12:45:42.527Z,7.93
2022-11-22T12:48:18.585Z,8.52
2022-11-22T12:48:23.138Z,10.88
2022-11-22T12:50:49.911Z,8.45
2022-11-22T12:53:27.306Z,10.27
2022-11-22T12:56:15.825Z,8.82
2022-11-22T12:59:16.024Z,10.55
2022-11-22T13:01:49.658Z,7.10
2022-11-22T13:04:26.556Z,8.20
2022-11-22T13:06:58.655Z,8.43
2022-11-22T13:09:39.019Z,11.80
2022-11-22T13:12:11.739Z,14.38
2022-11-22T13:14:44.648Z,14.70
2022-11-22T13:17:15.827Z,9.95
2022-11-22T13:19:51.561Z,7.50
2022-11-22T13:22:58.302Z,8.45
2022-11-22T13:25:32.144Z,7.13
2022-11-22T13:28:02.881Z,7.25
2022-11-22T13:30:31.103Z,7.70
2022-11-22T13:33:00.959Z,12.75
2022-11-22T13:35:32.771Z,20.55
2022-11-22T13:38:05.408Z,9.80
2022-11-22T13:40:35.691Z,8.07
2022-11-22T13:43:21.195Z,8.13
2022-11-22T13:46:00.907Z,8.15
2022-11-22T13:48:40.264Z,9.30
2022-11-22T13:51:12.454Z,11.65
2022-11-22T13:53:44.758Z,11.23
2022-11-22T13:56:21.301Z,12.27
2022-11-22T13:58:51.340Z,13.10
2022-11-22T14:01:36.588Z,9.25
2022-11-22T14:04:21.246Z,13.48
2022-11-22T14:06:53.827Z,9.40
2022-11-22T14:09:40.042Z,11.27
2022-11-22T14:12:32.449Z,10.10
2022-11-22T14:15:22.789Z,9.93
2022-11-22T14:18:14.224Z,11.27
2022-11-22T14:21:02.533Z,11.27
2022-11-22T14:24:00.147Z,12.20
2022-11-22T14:26:41.900Z,15.38
2022-11-22T14:29:36.474Z,13.45
2022-11-22T14:32:13.964Z,15.05
2022-11-22T14:35:02.558Z,13.43
2022-11-22T14:37:30.148Z,15.18
2022-11-22T14:40:09.340Z,15.63
2022-11-22T14:42:49.804Z,15.70
2022-11-22T14:45:42.253Z,13.70
2022-11-22T14:48:19.885Z,12.07
2022-11-22T14:51:05.673Z,13.55
2022-11-22T14:53:53.412Z,21.90
2022-11-22T14:56:36.724Z,13.13
2022-11-22T14:59:12.623Z,12.30
2022-11-22T15:01:56.681Z,10.20
2022-11-22T15:09:12.683Z,12.38
2022-11-22T15:09:17.050Z,15.10
2022-11-22T15:13:34.482Z,12.98
2022-11-22T15:57:26.828Z,13.80
2022-11-22T15:59:55.013Z,14.68
2022-11-22T16:02:31.767Z,9.80
2022-11-22T16:06:05.761Z,7.90
2022-11-22T16:07:57.102Z,11.02
2022-11-22T16:10:39.869Z,9.82
2022-11-22T16:13:19.098Z,9.30
2022-11-22T16:16:06.788Z,8.40
2022-11-22T16:18:34.351Z,8.88
2022-11-22T16:21:01.874Z,10.88
2022-11-22T16:23:30.288Z,13.13
2022-11-22T16:26:00.517Z,13.35
2022-11-22T16:28:29.523Z,13.77
2022-11-22T16:31:07.037Z,12.98
2022-11-22T16:33:34.267Z,14.77
2022-11-22T16:36:02.410Z,12.70
2022-11-22T16:38:30.298Z,12.48
2022-11-22T16:40:58.669Z,15.48
2022-11-22T16:43:29.208Z,13.00
2022-11-22T16:45:56.455Z,11.15
2022-11-22T16:48:33.460Z,11.30
2022-11-22T16:51:06.899Z,10.73
2022-11-22T16:53:41.658Z,12.37
2022-11-22T16:56:12.537Z,15.57
2022-11-22T16:58:40.044Z,16.67
2022-11-22T17:01:09.716Z,8.77
2022-11-22T17:03:39.212Z,8.45
2022-11-22T17:06:06.677Z,8.48
2022-11-22T17:08:33.872Z,9.93
2022-11-22T17:11:01.200Z,11.50
2022-11-22T17:13:29.073Z,9.98
2022-11-22T17:15:57.877Z,12.02
2022-11-22T17:18:25.080Z,12.35
2022-11-22T17:20:52.348Z,12.90
2022-11-22T17:23:42.172Z,14.50
2022-11-22T17:26:10.932Z,14.07
2022-11-22T17:28:38.429Z,10.48
2022-11-22T17:31:13.959Z,11.80
2022-11-22T17:33:41.459Z,13.73
2022-11-22T17:36:30.177Z,13.68
2022-11-22T17:38:58.922Z,17.83
2022-11-22T17:41:27.037Z,17.17
2022-11-22T17:43:54.332Z,17.75
2022-11-22T17:46:22.099Z,19.00
2022-11-22T17:48:53.522Z,16.92
2022-11-22T17:51:21.349Z,18.63
2022-11-22T17:53:49.185Z,12.80
2022-11-22T17:56:16.604Z,11.27
2022-11-22T17:58:44.126Z,13.13
2022-11-22T18:01:22.474Z,12.70
2022-11-22T18:03:50.177Z,12.15
2022-11-22T18:06:18.957Z,10.52
2022-11-22T18:08:47.409Z,10.52
2022-11-22T18:11:15.982Z,10.73
2022-11-22T18:13:43.808Z,12.20
2022-11-22T18:16:14.816Z,11.43
2022-11-22T18:18:58.417Z,13.15
2022-11-22T18:21:29.792Z,14.43
2022-11-22T18:23:58.799Z,12.60
2022-11-22T18:26:42.617Z,12.05
2022-11-22T18:31:59.432Z,14.60
2022-11-22T18:34:27.838Z,15.68
2022-11-22T18:37:00.441Z,14.43
2022-11-22T18:39:30.453Z,11.98
2022-11-22T18:41:58.085Z,13.90
2022-11-22T18:44:25.423Z,10.98
2022-11-22T18:46:53.175Z,11.88
2022-11-22T18:49:20.398Z,13.60
2022-11-22T18:51:47.719Z,11.63
2022-11-22T18:54:15.004Z,11.25
2022-11-22T18:56:42.196Z,11.35
2022-11-22T18:59:12.850Z,12.00
2022-11-22T19:01:41.038Z,12.27
2022-11-22T19:04:09.709Z,12.10
2022-11-22T19:06:37.292Z,10.20
2022-11-22T19:09:04.520Z,11.25
2022-11-22T19:11:32.311Z,12.80
2022-11-22T19:13:59.953Z,13.45
2022-11-22T19:16:30.777Z,13.05
2022-11-22T19:18:58.821Z,11.23
2022-11-22T19:21:28.176Z,12.23
2022-11-22T19:23:56.718Z,13.20
2022-11-22T19:26:26.623Z,12.70
2022-11-22T19:28:56.326Z,12.77
2022-11-22T19:31:29.596Z,12.60
2022-11-22T19:34:00.542Z,12.27
2022-11-22T19:36:33.142Z,12.73
2022-11-22T19:39:03.362Z,12.77
2022-11-22T19:41:31.357Z,11.80
2022-11-22T19:43:59.138Z,13.25
2022-11-22T19:46:26.560Z,15.27
2022-11-22T19:48:56.067Z,14.18
2022-11-22T19:51:24.606Z,14.43
2022-11-22T19:53:58.984Z,15.45
2022-11-22T19:56:29.732Z,15.00
2022-11-22T19:58:58.477Z,14.93
2022-11-22T20:01:27.484Z,15.40
2022-11-22T20:04:01.159Z,14.80
2022-11-22T20:06:28.836Z,12.82
2022-11-22T20:09:09.458Z,13.88
2022-11-22T20:11:37.668Z,12.50
2022-11-22T20:14:05.242Z,13.90
2022-11-22T20:16:33.228Z,13.43
2022-11-22T20:19:02.547Z,14.38
2022-11-22T20:21:31.712Z,14.23
2022-11-22T20:24:00.496Z,14.32
2022-11-22T20:26:28.502Z,13.98
2022-11-22T20:28:56.584Z,13.48
2022-11-22T20:31:24.393Z,12.27
2022-11-22T20:33:53.650Z,13.18
2022-11-22T20:36:29.112Z,13.35
2022-11-22T20:38:57.283Z,11.20
2022-11-22T20:41:31.697Z,12.95
2022-11-22T20:43:59.293Z,13.95
2022-11-22T20:46:28.664Z,12.40
2022-11-22T20:48:58.153Z,11.68
2022-11-22T20:51:29.347Z,12.32
2022-11-22T20:53:56.924Z,13.00
2022-11-22T20:56:24.770Z,14.27
2022-11-22T20:58:52.727Z,12.77
2022-11-22T21:01:20.306Z,12.02
2022-11-22T21:03:48.051Z,11.43
2022-11-22T21:06:17.015Z,11.40
2022-11-22T21:08:46.039Z,11.50
2022-11-22T21:11:15.873Z,11.55
2022-11-22T21:13:44.267Z,11.88
2022-11-22T21:16:22.641Z,12.50
2022-11-22T21:18:55.706Z,12.68
2022-11-22T21:21:24.572Z,12.20
2022-11-22T21:23:54.783Z,11.68
2022-11-22T21:26:23.296Z,11.68
2022-11-22T21:28:51.191Z,12.30
2022-11-22T21:31:18.927Z,12.65
2022-11-22T21:33:46.884Z,12.45
2022-11-22T21:36:14.814Z,11.90
2022-11-22T21:38:42.104Z,12.93
2022-11-22T21:44:01.925Z,12.82
2022-11-22T21:46:29.125Z,11.75
2022-11-22T21:48:56.490Z,11.75
2022-11-22T21:51:26.576Z,10.13
2022-11-22T21:54:01.371Z,10.63
2022-11-22T21:56:29.263Z,10.27
2022-11-22T21:58:56.407Z,12.15
2022-11-22T22:01:24.815Z,10.63
2022-11-22T22:03:52.614Z,14.77
2022-11-22T22:06:20.368Z,15.40
2022-11-22T22:08:47.668Z,12.88
2022-11-22T22:11:15.257Z,11.65
2022-11-22T22:13:42.416Z,11.75
2022-11-22T22:16:15.809Z,11.52
2022-11-22T22:18:43.832Z,11.25
2022-11-22T22:21:12.804Z,11.27
2022-11-22T22:23:41.052Z,17.23
2022-11-22T22:26:10.693Z,11.40
2022-11-22T22:28:39.194Z,11.13
2022-11-22T22:31:08.347Z,12.50
2022-11-22T22:33:37.383Z,11.57
2022-11-22T22:36:06.017Z,11.55
2022-11-22T22:38:34.026Z,14.52
2022-11-22T22:41:03.843Z,11.88
2022-11-22T22:43:33.411Z,10.75
2022-11-22T22:46:21.346Z,12.30
2022-11-22T22:48:49.985Z,11.88
2022-11-22T22:51:23.495Z,11.75
2022-11-22T22:53:52.778Z,12.45
2022-11-22T22:56:21.828Z,12.07
2022-11-22T22:58:53.013Z,12.77
2022-11-22T23:01:23.452Z,12.07
2022-11-22T23:03:53.410Z,11.85
2022-11-22T23:06:22.327Z,11.88
2022-11-22T23:08:51.471Z,11.55
2022-11-22T23:11:22.990Z,11.27
2022-11-22T23:13:50.534Z,11.32
2022-11-22T23:16:17.814Z,11.90
2022-11-22T23:18:45.983Z,11.45
2022-11-22T23:21:15.720Z,10.85
2022-11-22T23:23:43.247Z,11.35
2022-11-22T23:26:12.578Z,14.43
2022-11-22T23:28:39.813Z,10.00
2022-11-22T23:31:12.411Z,10.88
2022-11-22T23:33:40.153Z,9.45
2022-11-22T23:36:09.584Z,11.00
2022-11-22T23:38:37.323Z,10.25
2022-11-22T23:41:04.943Z,10.13
2022-11-22T23:43:32.502Z,9.77
2022-11-22T23:45:59.815Z,13.60
2022-11-22T23:48:28.023Z,15.23
2022-11-22T23:50:55.798Z,18.40
2022-11-22T23:53:23.328Z,23.95
2022-11-22T23:55:50.604Z,25.45
2022-11-22T23:58:17.703Z,12.05
